sensor_id;sensor_type;location;lat;lon;timestamp;P1;durP1;ratioP1;P2;durP2;ratioP2
59271;SDS011;45043;51.068;7.026;2023-02-02T00:00:37;18.30;;;6.97;;
59271;SDS011;45043;51.068;7.026;2023-02-02T00:03:38;22.13;;;6.43;;
59271;SDS011;45043;51.068;7.026;2023-02-02T00:06:39;22.90;;;7.47;;
59271;SDS011;45043;51.068;7.026;2023-02-02T00:09:39;19.57;;;7.10;;
59271;SDS011;45043;51.068;7.026;2023-02-02T00:12:39;19.50;;;7.50;;
59271;SDS011;45043;51.068;7.026;2023-02-02T00:15:40;22.63;;;7.40;;
59271;SDS011;45043;51.068;7.026;2023-02-02T00:18:41;24.97;;;7.90;;
59271;SDS011;45043;51.068;7.026;2023-02-02T00:21:41;18.63;;;7.63;;
59271;SDS011;45043;51.068;7.026;2023-02-02T00:24:43;18.33;;;6.77;;
59271;SDS011;45043;51.068;7.026;2023-02-02T00:27:43;17.67;;;6.20;;
59271;SDS011;45043;51.068;7.026;2023-02-02T00:30:44;21.07;;;7.27;;
59271;SDS011;45043;51.068;7.026;2023-02-02T00:33:45;18.50;;;6.60;;
59271;SDS011;45043;51.068;7.026;2023-02-02T00:36:47;17.17;;;6.47;;
59271;SDS011;45043;51.068;7.026;2023-02-02T00:39:48;18.37;;;5.80;;
59271;SDS011;45043;51.068;7.026;2023-02-02T00:42:49;20.93;;;7.00;;
59271;SDS011;45043;51.068;7.026;2023-02-02T00:45:49;18.00;;;6.90;;
59271;SDS011;45043;51.068;7.026;2023-02-02T00:48:50;22.53;;;6.40;;
59271;SDS011;45043;51.068;7.026;2023-02-02T00:51:51;21.43;;;7.47;;
59271;SDS011;45043;51.068;7.026;2023-02-02T00:54:51;24.50;;;7.37;;
59271;SDS011;45043;51.068;7.026;2023-02-02T00:57:52;15.73;;;6.30;;
59271;SDS011;45043;51.068;7.026;2023-02-02T01:00:54;19.83;;;7.13;;
59271;SDS011;45043;51.068;7.026;2023-02-02T01:03:54;19.97;;;6.80;;
59271;SDS011;45043;51.068;7.026;2023-02-02T01:06:55;16.83;;;7.43;;
59271;SDS011;45043;51.068;7.026;2023-02-02T01:09:55;18.87;;;7.27;;
59271;SDS011;45043;51.068;7.026;2023-02-02T01:12:56;23.47;;;7.40;;
59271;SDS011;45043;51.068;7.026;2023-02-02T01:15:57;22.00;;;6.77;;
59271;SDS011;45043;51.068;7.026;2023-02-02T01:18:59;21.93;;;6.83;;
59271;SDS011;45043;51.068;7.026;2023-02-02T01:22:00;19.90;;;7.60;;
59271;SDS011;45043;51.068;7.026;2023-02-02T01:25:00;17.43;;;6.67;;
59271;SDS011;45043;51.068;7.026;2023-02-02T01:28:01;22.27;;;6.87;;
59271;SDS011;45043;51.068;7.026;2023-02-02T01:31:09;21.27;;;6.57;;
59271;SDS011;45043;51.068;7.026;2023-02-02T01:34:16;19.67;;;6.60;;
59271;SDS011;45043;51.068;7.026;2023-02-02T01:37:16;20.63;;;6.97;;
59271;SDS011;45043;51.068;7.026;2023-02-02T01:40:17;16.63;;;6.87;;
59271;SDS011;45043;51.068;7.026;2023-02-02T01:43:29;25.27;;;7.10;;
59271;SDS011;45043;51.068;7.026;2023-02-02T01:46:52;16.57;;;7.20;;
59271;SDS011;45043;51.068;7.026;2023-02-02T01:49:53;24.87;;;8.27;;
59271;SDS011;45043;51.068;7.026;2023-02-02T01:52:55;22.80;;;8.40;;
59271;SDS011;45043;51.068;7.026;2023-02-02T01:56:00;19.37;;;8.03;;
59271;SDS011;45043;51.068;7.026;2023-02-02T01:59:03;25.37;;;8.83;;
59271;SDS011;45043;51.068;7.026;2023-02-02T02:02:06;25.00;;;8.67;;
59271;SDS011;45043;51.068;7.026;2023-02-02T02:05:07;24.77;;;9.13;;
59271;SDS011;45043;51.068;7.026;2023-02-02T02:08:11;22.33;;;8.67;;
59271;SDS011;45043;51.068;7.026;2023-02-02T02:11:17;26.03;;;8.80;;
59271;SDS011;45043;51.068;7.026;2023-02-02T02:14:19;23.67;;;8.73;;
59271;SDS011;45043;51.068;7.026;2023-02-02T02:36:29;24.23;;;7.60;;
59271;SDS011;45043;51.068;7.026;2023-02-02T02:39:35;19.47;;;7.27;;
59271;SDS011;45043;51.068;7.026;2023-02-02T02:42:42;22.70;;;7.17;;
59271;SDS011;45043;51.068;7.026;2023-02-02T02:45:47;22.27;;;6.80;;
59271;SDS011;45043;51.068;7.026;2023-02-02T02:48:49;18.87;;;7.10;;
59271;SDS011;45043;51.068;7.026;2023-02-02T02:51:51;22.33;;;6.77;;
59271;SDS011;45043;51.068;7.026;2023-02-02T02:55:01;22.77;;;6.87;;
59271;SDS011;45043;51.068;7.026;2023-02-02T02:58:09;20.53;;;6.63;;
59271;SDS011;45043;51.068;7.026;2023-02-02T03:01:36;20.90;;;7.73;;
59271;SDS011;45043;51.068;7.026;2023-02-02T03:04:50;16.10;;;6.43;;
59271;SDS011;45043;51.068;7.026;2023-02-02T03:08:16;21.80;;;7.30;;
59271;SDS011;45043;51.068;7.026;2023-02-02T03:11:37;28.37;;;8.73;;
59271;SDS011;45043;51.068;7.026;2023-02-02T03:14:38;22.60;;;7.67;;
59271;SDS011;45043;51.068;7.026;2023-02-02T03:17:39;23.17;;;7.47;;
59271;SDS011;45043;51.068;7.026;2023-02-02T03:20:41;20.83;;;7.80;;
59271;SDS011;45043;51.068;7.026;2023-02-02T03:23:43;22.20;;;7.90;;
59271;SDS011;45043;51.068;7.026;2023-02-02T03:26:44;21.17;;;7.00;;
59271;SDS011;45043;51.068;7.026;2023-02-02T03:29:45;19.00;;;8.10;;
59271;SDS011;45043;51.068;7.026;2023-02-02T03:32:46;22.50;;;7.67;;
59271;SDS011;45043;51.068;7.026;2023-02-02T03:35:46;26.53;;;8.57;;
59271;SDS011;45043;51.068;7.026;2023-02-02T03:38:47;21.67;;;8.60;;
59271;SDS011;45043;51.068;7.026;2023-02-02T03:41:47;24.63;;;8.13;;
59271;SDS011;45043;51.068;7.026;2023-02-02T03:44:48;22.07;;;8.67;;
59271;SDS011;45043;51.068;7.026;2023-02-02T03:47:48;19.23;;;7.87;;
59271;SDS011;45043;51.068;7.026;2023-02-02T03:50:48;27.43;;;7.37;;
59271;SDS011;45043;51.068;7.026;2023-02-02T03:53:49;22.63;;;9.17;;
59271;SDS011;45043;51.068;7.026;2023-02-02T03:56:49;19.10;;;7.87;;
59271;SDS011;45043;51.068;7.026;2023-02-02T03:59:50;23.23;;;8.23;;
59271;SDS011;45043;51.068;7.026;2023-02-02T04:02:50;18.63;;;7.83;;
59271;SDS011;45043;51.068;7.026;2023-02-02T04:05:52;27.67;;;8.47;;
59271;SDS011;45043;51.068;7.026;2023-02-02T04:08:53;25.40;;;8.63;;
59271;SDS011;45043;51.068;7.026;2023-02-02T04:11:53;25.57;;;9.27;;
59271;SDS011;45043;51.068;7.026;2023-02-02T04:14:54;22.97;;;8.17;;
59271;SDS011;45043;51.068;7.026;2023-02-02T04:17:54;21.60;;;7.93;;
59271;SDS011;45043;51.068;7.026;2023-02-02T04:20:55;25.20;;;8.10;;
59271;SDS011;45043;51.068;7.026;2023-02-02T04:23:59;26.77;;;7.47;;
59271;SDS011;45043;51.068;7.026;2023-02-02T04:27:00;23.93;;;8.13;;
59271;SDS011;45043;51.068;7.026;2023-02-02T04:30:00;17.57;;;7.03;;
59271;SDS011;45043;51.068;7.026;2023-02-02T04:33:01;25.43;;;7.53;;
59271;SDS011;45043;51.068;7.026;2023-02-02T04:36:02;21.70;;;7.80;;
59271;SDS011;45043;51.068;7.026;2023-02-02T04:39:03;19.43;;;6.20;;
59271;SDS011;45043;51.068;7.026;2023-02-02T04:42:05;22.50;;;7.40;;
59271;SDS011;45043;51.068;7.026;2023-02-02T04:45:05;22.70;;;7.33;;
59271;SDS011;45043;51.068;7.026;2023-02-02T04:48:06;26.17;;;7.83;;
59271;SDS011;45043;51.068;7.026;2023-02-02T04:51:08;19.20;;;7.00;;
59271;SDS011;45043;51.068;7.026;2023-02-02T04:54:11;27.07;;;7.87;;
59271;SDS011;45043;51.068;7.026;2023-02-02T04:57:11;18.00;;;6.93;;
59271;SDS011;45043;51.068;7.026;2023-02-02T05:00:12;25.33;;;7.43;;
59271;SDS011;45043;51.068;7.026;2023-02-02T05:03:13;22.60;;;7.57;;
59271;SDS011;45043;51.068;7.026;2023-02-02T05:06:14;26.13;;;8.13;;
59271;SDS011;45043;51.068;7.026;2023-02-02T05:09:15;21.90;;;8.37;;
59271;SDS011;45043;51.068;7.026;2023-02-02T05:12:16;22.47;;;7.67;;
59271;SDS011;45043;51.068;7.026;2023-02-02T05:15:16;28.83;;;8.27;;
59271;SDS011;45043;51.068;7.026;2023-02-02T05:18:16;23.47;;;7.80;;
59271;SDS011;45043;51.068;7.026;2023-02-02T05:21:17;25.13;;;8.40;;
59271;SDS011;45043;51.068;7.026;2023-02-02T05:24:18;28.30;;;8.47;;
59271;SDS011;45043;51.068;7.026;2023-02-02T05:27:19;21.17;;;7.77;;
59271;SDS011;45043;51.068;7.026;2023-02-02T05:30:20;29.43;;;9.07;;
59271;SDS011;45043;51.068;7.026;2023-02-02T05:33:20;24.80;;;8.17;;
59271;SDS011;45043;51.068;7.026;2023-02-02T05:36:21;23.63;;;8.37;;
59271;SDS011;45043;51.068;7.026;2023-02-02T05:39:21;22.40;;;8.70;;
59271;SDS011;45043;51.068;7.026;2023-02-02T05:42:21;22.73;;;7.97;;
59271;SDS011;45043;51.068;7.026;2023-02-02T05:45:22;25.03;;;8.00;;
59271;SDS011;45043;51.068;7.026;2023-02-02T05:48:23;21.43;;;8.07;;
59271;SDS011;45043;51.068;7.026;2023-02-02T05:51:24;17.13;;;6.90;;
59271;SDS011;45043;51.068;7.026;2023-02-02T05:54:26;24.87;;;8.03;;
59271;SDS011;45043;51.068;7.026;2023-02-02T05:57:27;26.70;;;8.43;;
59271;SDS011;45043;51.068;7.026;2023-02-02T06:00:27;22.93;;;8.50;;
59271;SDS011;45043;51.068;7.026;2023-02-02T06:03:28;23.77;;;6.60;;
59271;SDS011;45043;51.068;7.026;2023-02-02T06:06:28;22.97;;;6.73;;
59271;SDS011;45043;51.068;7.026;2023-02-02T06:09:29;20.37;;;6.53;;
59271;SDS011;45043;51.068;7.026;2023-02-02T06:12:30;18.17;;;7.27;;
59271;SDS011;45043;51.068;7.026;2023-02-02T06:15:30;19.17;;;7.27;;
59271;SDS011;45043;51.068;7.026;2023-02-02T06:18:32;19.97;;;6.87;;
59271;SDS011;45043;51.068;7.026;2023-02-02T06:21:33;17.73;;;7.30;;
59271;SDS011;45043;51.068;7.026;2023-02-02T06:24:33;17.40;;;7.70;;
59271;SDS011;45043;51.068;7.026;2023-02-02T06:27:34;23.63;;;8.23;;
59271;SDS011;45043;51.068;7.026;2023-02-02T06:30:34;20.97;;;9.03;;
59271;SDS011;45043;51.068;7.026;2023-02-02T06:33:35;20.97;;;9.57;;
59271;SDS011;45043;51.068;7.026;2023-02-02T06:36:36;16.80;;;8.33;;
59271;SDS011;45043;51.068;7.026;2023-02-02T06:39:37;20.93;;;9.47;;
59271;SDS011;45043;51.068;7.026;2023-02-02T06:42:38;17.30;;;8.17;;
59271;SDS011;45043;51.068;7.026;2023-02-02T06:45:39;20.40;;;9.33;;
59271;SDS011;45043;51.068;7.026;2023-02-02T06:48:40;20.57;;;9.33;;
59271;SDS011;45043;51.068;7.026;2023-02-02T06:51:40;21.30;;;8.57;;
59271;SDS011;45043;51.068;7.026;2023-02-02T06:54:41;18.80;;;9.27;;
59271;SDS011;45043;51.068;7.026;2023-02-02T06:57:41;18.67;;;8.70;;
59271;SDS011;45043;51.068;7.026;2023-02-02T07:00:42;17.23;;;8.50;;
59271;SDS011;45043;51.068;7.026;2023-02-02T07:03:42;18.30;;;7.80;;
59271;SDS011;45043;51.068;7.026;2023-02-02T07:06:47;17.53;;;8.43;;
59271;SDS011;45043;51.068;7.026;2023-02-02T07:09:48;18.10;;;7.87;;
59271;SDS011;45043;51.068;7.026;2023-02-02T07:12:48;20.07;;;8.67;;
59271;SDS011;45043;51.068;7.026;2023-02-02T07:15:49;16.30;;;8.03;;
59271;SDS011;45043;51.068;7.026;2023-02-02T07:18:49;14.30;;;7.97;;
59271;SDS011;45043;51.068;7.026;2023-02-02T07:21:50;19.80;;;8.20;;
59271;SDS011;45043;51.068;7.026;2023-02-02T07:24:50;14.27;;;7.80;;
59271;SDS011;45043;51.068;7.026;2023-02-02T07:27:51;17.10;;;8.23;;
59271;SDS011;45043;51.068;7.026;2023-02-02T07:30:52;18.03;;;8.60;;
59271;SDS011;45043;51.068;7.026;2023-02-02T07:33:53;18.40;;;8.10;;
59271;SDS011;45043;51.068;7.026;2023-02-02T07:36:54;19.73;;;8.10;;
59271;SDS011;45043;51.068;7.026;2023-02-02T07:39:54;23.70;;;8.27;;
59271;SDS011;45043;51.068;7.026;2023-02-02T07:42:55;21.23;;;8.03;;
59271;SDS011;45043;51.068;7.026;2023-02-02T07:46:03;17.47;;;8.00;;
59271;SDS011;45043;51.068;7.026;2023-02-02T07:49:08;22.50;;;8.30;;
59271;SDS011;45043;51.068;7.026;2023-02-02T07:52:13;18.33;;;8.37;;
59271;SDS011;45043;51.068;7.026;2023-02-02T07:55:15;20.27;;;9.33;;
59271;SDS011;45043;51.068;7.026;2023-02-02T07:58:15;17.53;;;8.63;;
59271;SDS011;45043;51.068;7.026;2023-02-02T08:01:16;18.90;;;9.07;;
59271;SDS011;45043;51.068;7.026;2023-02-02T08:04:17;20.40;;;8.23;;
59271;SDS011;45043;51.068;7.026;2023-02-02T08:07:17;15.80;;;8.03;;
59271;SDS011;45043;51.068;7.026;2023-02-02T08:10:20;15.43;;;7.93;;
59271;SDS011;45043;51.068;7.026;2023-02-02T08:13:21;15.17;;;8.07;;
59271;SDS011;45043;51.068;7.026;2023-02-02T08:16:21;14.47;;;7.67;;
59271;SDS011;45043;51.068;7.026;2023-02-02T08:19:22;18.13;;;8.87;;
59271;SDS011;45043;51.068;7.026;2023-02-02T08:22:22;18.40;;;8.80;;
59271;SDS011;45043;51.068;7.026;2023-02-02T08:25:23;16.03;;;7.87;;
59271;SDS011;45043;51.068;7.026;2023-02-02T08:28:24;14.97;;;8.23;;
59271;SDS011;45043;51.068;7.026;2023-02-02T08:31:25;18.03;;;9.00;;
59271;SDS011;45043;51.068;7.026;2023-02-02T08:34:28;17.73;;;8.53;;
59271;SDS011;45043;51.068;7.026;2023-02-02T08:37:29;16.47;;;9.33;;
59271;SDS011;45043;51.068;7.026;2023-02-02T08:40:29;17.43;;;9.20;;
59271;SDS011;45043;51.068;7.026;2023-02-02T08:43:30;17.47;;;9.57;;
59271;SDS011;45043;51.068;7.026;2023-02-02T08:46:30;20.00;;;9.13;;
59271;SDS011;45043;51.068;7.026;2023-02-02T08:49:31;18.80;;;9.17;;
59271;SDS011;45043;51.068;7.026;2023-02-02T08:52:32;16.73;;;8.60;;
59271;SDS011;45043;51.068;7.026;2023-02-02T08:55:33;20.50;;;9.57;;
59271;SDS011;45043;51.068;7.026;2023-02-02T08:58:33;22.23;;;9.17;;
59271;SDS011;45043;51.068;7.026;2023-02-02T09:01:34;19.37;;;8.60;;
59271;SDS011;45043;51.068;7.026;2023-02-02T09:04:35;18.57;;;8.40;;
59271;SDS011;45043;51.068;7.026;2023-02-02T09:07:37;17.90;;;8.37;;
59271;SDS011;45043;51.068;7.026;2023-02-02T09:10:37;19.03;;;8.63;;
59271;SDS011;45043;51.068;7.026;2023-02-02T09:13:38;18.40;;;8.23;;
59271;SDS011;45043;51.068;7.026;2023-02-02T09:16:40;16.70;;;7.80;;
59271;SDS011;45043;51.068;7.026;2023-02-02T09:19:41;17.13;;;8.17;;
59271;SDS011;45043;51.068;7.026;2023-02-02T09:22:41;20.37;;;8.90;;
59271;SDS011;45043;51.068;7.026;2023-02-02T09:25:42;20.27;;;8.97;;
59271;SDS011;45043;51.068;7.026;2023-02-02T09:28:43;18.87;;;9.70;;
59271;SDS011;45043;51.068;7.026;2023-02-02T09:31:49;18.20;;;9.17;;
59271;SDS011;45043;51.068;7.026;2023-02-02T09:34:49;17.17;;;9.70;;
59271;SDS011;45043;51.068;7.026;2023-02-02T09:37:50;19.57;;;10.33;;
59271;SDS011;45043;51.068;7.026;2023-02-02T09:40:50;21.67;;;10.97;;
59271;SDS011;45043;51.068;7.026;2023-02-02T09:53:22;27.10;;;12.37;;
59271;SDS011;45043;51.068;7.026;2023-02-02T09:56:39;25.77;;;12.50;;
59271;SDS011;45043;51.068;7.026;2023-02-02T09:59:42;23.73;;;12.87;;
59271;SDS011;45043;51.068;7.026;2023-02-02T10:02:46;25.43;;;13.77;;
59271;SDS011;45043;51.068;7.026;2023-02-02T10:05:52;21.83;;;14.70;;
59271;SDS011;45043;51.068;7.026;2023-02-02T10:09:47;27.90;;;14.30;;
59271;SDS011;45043;51.068;7.026;2023-02-02T10:19:10;19.90;;;13.37;;
59271;SDS011;45043;51.068;7.026;2023-02-02T10:22:14;26.70;;;15.10;;
59271;SDS011;45043;51.068;7.026;2023-02-02T10:25:19;24.00;;;14.43;;
59271;SDS011;45043;51.068;7.026;2023-02-02T10:28:31;27.20;;;15.87;;
59271;SDS011;45043;51.068;7.026;2023-02-02T10:32:02;30.17;;;15.67;;
59271;SDS011;45043;51.068;7.026;2023-02-02T10:38:45;21.83;;;14.97;;
59271;SDS011;45043;51.068;7.026;2023-02-02T10:42:05;22.67;;;13.20;;
59271;SDS011;45043;51.068;7.026;2023-02-02T10:45:14;18.93;;;12.67;;
59271;SDS011;45043;51.068;7.026;2023-02-02T10:48:19;22.60;;;13.70;;
59271;SDS011;45043;51.068;7.026;2023-02-02T10:51:24;20.30;;;13.67;;
59271;SDS011;45043;51.068;7.026;2023-02-02T10:54:36;27.37;;;14.23;;
59271;SDS011;45043;51.068;7.026;2023-02-02T10:57:47;23.80;;;13.57;;
59271;SDS011;45043;51.068;7.026;2023-02-02T11:00:49;24.37;;;13.57;;
59271;SDS011;45043;51.068;7.026;2023-02-02T11:03:52;24.37;;;12.93;;
59271;SDS011;45043;51.068;7.026;2023-02-02T11:07:12;24.37;;;13.80;;
59271;SDS011;45043;51.068;7.026;2023-02-02T11:10:19;23.67;;;14.33;;
59271;SDS011;45043;51.068;7.026;2023-02-02T11:16:40;21.27;;;13.90;;
59271;SDS011;45043;51.068;7.026;2023-02-02T11:19:41;23.23;;;13.07;;
59271;SDS011;45043;51.068;7.026;2023-02-02T11:22:42;26.33;;;12.70;;
59271;SDS011;45043;51.068;7.026;2023-02-02T11:25:43;22.60;;;12.47;;
59271;SDS011;45043;51.068;7.026;2023-02-02T11:28:44;25.30;;;12.63;;
59271;SDS011;45043;51.068;7.026;2023-02-02T11:31:48;23.00;;;13.80;;
59271;SDS011;45043;51.068;7.026;2023-02-02T11:38:14;20.13;;;12.80;;
59271;SDS011;45043;51.068;7.026;2023-02-02T11:41:16;21.63;;;11.27;;
59271;SDS011;45043;51.068;7.026;2023-02-02T11:44:21;22.17;;;11.37;;
59271;SDS011;45043;51.068;7.026;2023-02-02T11:47:30;21.20;;;10.97;;
59271;SDS011;45043;51.068;7.026;2023-02-02T11:50:32;23.60;;;11.10;;
59271;SDS011;45043;51.068;7.026;2023-02-02T11:56:41;21.93;;;10.50;;
59271;SDS011;45043;51.068;7.026;2023-02-02T11:59:49;22.50;;;11.30;;
59271;SDS011;45043;51.068;7.026;2023-02-02T12:03:19;16.97;;;10.87;;
59271;SDS011;45043;51.068;7.026;2023-02-02T12:09:32;21.57;;;10.70;;
59271;SDS011;45043;51.068;7.026;2023-02-02T12:19:18;18.30;;;11.27;;
59271;SDS011;45043;51.068;7.026;2023-02-02T12:59:00;16.33;;;10.50;;
59271;SDS011;45043;51.068;7.026;2023-02-02T13:02:29;20.53;;;11.13;;
59271;SDS011;45043;51.068;7.026;2023-02-02T13:09:29;19.93;;;11.33;;
59271;SDS011;45043;51.068;7.026;2023-02-02T13:12:55;18.33;;;10.80;;
59271;SDS011;45043;51.068;7.026;2023-02-02T13:16:05;20.57;;;12.23;;
59271;SDS011;45043;51.068;7.026;2023-02-02T13:19:11;18.27;;;10.90;;
59271;SDS011;45043;51.068;7.026;2023-02-02T13:22:24;22.03;;;10.93;;
59271;SDS011;45043;51.068;7.026;2023-02-02T13:25:34;19.40;;;10.43;;
59271;SDS011;45043;51.068;7.026;2023-02-02T13:28:42;19.17;;;9.53;;
59271;SDS011;45043;51.068;7.026;2023-02-02T13:31:58;18.37;;;10.20;;
59271;SDS011;45043;51.068;7.026;2023-02-02T13:35:12;20.23;;;10.00;;
59271;SDS011;45043;51.068;7.026;2023-02-02T13:41:21;16.20;;;9.50;;
59271;SDS011;45043;51.068;7.026;2023-02-02T13:47:36;19.40;;;10.23;;
59271;SDS011;45043;51.068;7.026;2023-02-02T13:50:53;18.30;;;10.63;;
59271;SDS011;45043;51.068;7.026;2023-02-02T13:57:13;16.33;;;9.63;;
59271;SDS011;45043;51.068;7.026;2023-02-02T14:00:27;14.73;;;9.63;;
59271;SDS011;45043;51.068;7.026;2023-02-02T14:03:37;17.43;;;10.10;;
59271;SDS011;45043;51.068;7.026;2023-02-02T14:06:53;16.70;;;10.07;;
59271;SDS011;45043;51.068;7.026;2023-02-02T14:09:58;15.17;;;9.30;;
59271;SDS011;45043;51.068;7.026;2023-02-02T14:13:06;16.30;;;9.07;;
59271;SDS011;45043;51.068;7.026;2023-02-02T14:22:44;13.80;;;8.20;;
59271;SDS011;45043;51.068;7.026;2023-02-02T14:26:07;16.23;;;8.63;;
59271;SDS011;45043;51.068;7.026;2023-02-02T14:32:41;16.50;;;8.20;;
59271;SDS011;45043;51.068;7.026;2023-02-02T14:41:52;16.37;;;7.90;;
59271;SDS011;45043;51.068;7.026;2023-02-02T14:45:37;18.73;;;7.27;;
59271;SDS011;45043;51.068;7.026;2023-02-02T14:48:42;13.37;;;7.30;;
59271;SDS011;45043;51.068;7.026;2023-02-02T14:51:53;20.03;;;7.80;;
59271;SDS011;45043;51.068;7.026;2023-02-02T14:54:56;11.77;;;7.10;;
59271;SDS011;45043;51.068;7.026;2023-02-02T14:57:59;12.10;;;6.90;;
59271;SDS011;45043;51.068;7.026;2023-02-02T15:04:25;11.73;;;7.30;;
59271;SDS011;45043;51.068;7.026;2023-02-02T15:13:56;13.83;;;7.30;;
59271;SDS011;45043;51.068;7.026;2023-02-02T15:20:39;17.23;;;7.23;;
59271;SDS011;45043;51.068;7.026;2023-02-02T15:23:44;10.70;;;6.13;;
59271;SDS011;45043;51.068;7.026;2023-02-02T15:26:46;13.30;;;6.27;;
59271;SDS011;45043;51.068;7.026;2023-02-02T15:29:49;13.47;;;6.00;;
59271;SDS011;45043;51.068;7.026;2023-02-02T15:32:54;12.00;;;7.00;;
59271;SDS011;45043;51.068;7.026;2023-02-02T15:35:56;9.97;;;6.33;;
59271;SDS011;45043;51.068;7.026;2023-02-02T15:42:23;11.23;;;6.53;;
59271;SDS011;45043;51.068;7.026;2023-02-02T15:45:51;11.23;;;6.87;;
59271;SDS011;45043;51.068;7.026;2023-02-02T15:49:13;10.00;;;6.87;;
59271;SDS011;45043;51.068;7.026;2023-02-02T15:52:16;13.53;;;7.53;;
59271;SDS011;45043;51.068;7.026;2023-02-02T15:58:32;12.17;;;7.40;;
59271;SDS011;45043;51.068;7.026;2023-02-02T16:01:42;16.47;;;7.60;;
59271;SDS011;45043;51.068;7.026;2023-02-02T16:04:46;16.73;;;7.60;;
59271;SDS011;45043;51.068;7.026;2023-02-02T16:07:46;14.10;;;6.07;;
59271;SDS011;45043;51.068;7.026;2023-02-02T16:10:47;14.97;;;6.03;;
59271;SDS011;45043;51.068;7.026;2023-02-02T16:16:55;11.50;;;6.90;;
59271;SDS011;45043;51.068;7.026;2023-02-02T16:20:13;11.57;;;6.27;;
59271;SDS011;45043;51.068;7.026;2023-02-02T16:23:19;15.43;;;6.83;;
59271;SDS011;45043;51.068;7.026;2023-02-02T16:26:26;9.50;;;6.13;;
59271;SDS011;45043;51.068;7.026;2023-02-02T16:29:30;11.07;;;6.17;;
59271;SDS011;45043;51.068;7.026;2023-02-02T16:32:36;15.87;;;6.70;;
59271;SDS011;45043;51.068;7.026;2023-02-02T16:35:38;12.43;;;6.30;;
59271;SDS011;45043;51.068;7.026;2023-02-02T16:38:40;12.23;;;6.80;;
59271;SDS011;45043;51.068;7.026;2023-02-02T16:41:41;11.43;;;6.90;;
59271;SDS011;45043;51.068;7.026;2023-02-02T16:44:42;12.47;;;7.50;;
59271;SDS011;45043;51.068;7.026;2023-02-02T16:47:45;15.23;;;8.07;;
59271;SDS011;45043;51.068;7.026;2023-02-02T16:50:46;14.90;;;9.43;;
59271;SDS011;45043;51.068;7.026;2023-02-02T16:57:05;19.80;;;9.63;;
59271;SDS011;45043;51.068;7.026;2023-02-02T17:00:05;13.97;;;9.30;;
59271;SDS011;45043;51.068;7.026;2023-02-02T17:03:08;12.03;;;9.33;;
59271;SDS011;45043;51.068;7.026;2023-02-02T17:06:11;17.97;;;9.77;;
59271;SDS011;45043;51.068;7.026;2023-02-02T17:12:31;12.77;;;10.17;;
59271;SDS011;45043;51.068;7.026;2023-02-02T17:15:33;18.47;;;11.50;;
59271;SDS011;45043;51.068;7.026;2023-02-02T17:18:34;19.77;;;11.93;;
59271;SDS011;45043;51.068;7.026;2023-02-02T17:21:35;19.00;;;12.90;;
59271;SDS011;45043;51.068;7.026;2023-02-02T17:24:35;18.67;;;13.57;;
59271;SDS011;45043;51.068;7.026;2023-02-02T17:27:36;21.80;;;13.17;;
59271;SDS011;45043;51.068;7.026;2023-02-02T17:30:43;24.30;;;13.83;;
59271;SDS011;45043;51.068;7.026;2023-02-02T17:33:46;23.03;;;14.40;;
59271;SDS011;45043;51.068;7.026;2023-02-02T17:36:46;20.60;;;14.93;;
59271;SDS011;45043;51.068;7.026;2023-02-02T17:39:47;20.10;;;15.00;;
59271;SDS011;45043;51.068;7.026;2023-02-02T17:42:50;22.47;;;16.17;;
59271;SDS011;45043;51.068;7.026;2023-02-02T17:45:53;26.07;;;17.50;;
59271;SDS011;45043;51.068;7.026;2023-02-02T17:48:53;22.40;;;16.00;;
59271;SDS011;45043;51.068;7.026;2023-02-02T17:51:54;25.37;;;17.33;;
59271;SDS011;45043;51.068;7.026;2023-02-02T17:54:54;26.90;;;17.07;;
59271;SDS011;45043;51.068;7.026;2023-02-02T17:57:55;22.57;;;14.77;;
59271;SDS011;45043;51.068;7.026;2023-02-02T18:00:56;20.23;;;13.53;;
59271;SDS011;45043;51.068;7.026;2023-02-02T18:03:58;23.13;;;14.07;;
59271;SDS011;45043;51.068;7.026;2023-02-02T18:06:58;20.93;;;13.20;;
59271;SDS011;45043;51.068;7.026;2023-02-02T18:10:03;19.20;;;13.47;;
59271;SDS011;45043;51.068;7.026;2023-02-02T18:13:04;17.13;;;14.00;;
59271;SDS011;45043;51.068;7.026;2023-02-02T18:16:05;20.60;;;13.57;;
59271;SDS011;45043;51.068;7.026;2023-02-02T18:19:06;20.90;;;14.20;;
59271;SDS011;45043;51.068;7.026;2023-02-02T18:22:07;23.87;;;15.30;;
59271;SDS011;45043;51.068;7.026;2023-02-02T18:25:07;21.70;;;15.33;;
59271;SDS011;45043;51.068;7.026;2023-02-02T18:28:08;20.37;;;14.10;;
59271;SDS011;45043;51.068;7.026;2023-02-02T18:31:10;24.07;;;15.73;;
59271;SDS011;45043;51.068;7.026;2023-02-02T18:34:13;20.80;;;15.40;;
59271;SDS011;45043;51.068;7.026;2023-02-02T18:37:13;25.93;;;15.97;;
59271;SDS011;45043;51.068;7.026;2023-02-02T18:40:13;25.43;;;15.63;;
59271;SDS011;45043;51.068;7.026;2023-02-02T18:43:17;22.57;;;16.37;;
59271;SDS011;45043;51.068;7.026;2023-02-02T18:46:18;24.57;;;17.03;;
59271;SDS011;45043;51.068;7.026;2023-02-02T18:49:19;26.70;;;18.47;;
59271;SDS011;45043;51.068;7.026;2023-02-02T18:52:20;23.53;;;17.20;;
59271;SDS011;45043;51.068;7.026;2023-02-02T18:55:21;26.67;;;19.07;;
59271;SDS011;45043;51.068;7.026;2023-02-02T18:58:21;25.73;;;17.47;;
59271;SDS011;45043;51.068;7.026;2023-02-02T19:01:24;28.07;;;19.77;;
59271;SDS011;45043;51.068;7.026;2023-02-02T19:04:25;29.90;;;20.03;;
59271;SDS011;45043;51.068;7.026;2023-02-02T19:07:26;28.87;;;20.00;;
59271;SDS011;45043;51.068;7.026;2023-02-02T19:10:45;28.33;;;19.37;;
59271;SDS011;45043;51.068;7.026;2023-02-02T19:13:45;25.40;;;18.67;;
59271;SDS011;45043;51.068;7.026;2023-02-02T19:16:46;25.87;;;18.20;;
59271;SDS011;45043;51.068;7.026;2023-02-02T19:19:48;22.83;;;17.20;;
59271;SDS011;45043;51.068;7.026;2023-02-02T19:22:49;22.93;;;16.80;;
59271;SDS011;45043;51.068;7.026;2023-02-02T19:25:59;22.27;;;17.40;;
59271;SDS011;45043;51.068;7.026;2023-02-02T19:29:24;26.17;;;16.70;;
59271;SDS011;45043;51.068;7.026;2023-02-02T19:32:32;25.87;;;16.97;;
59271;SDS011;45043;51.068;7.026;2023-02-02T19:35:33;24.10;;;17.83;;
59271;SDS011;45043;51.068;7.026;2023-02-02T19:38:38;19.37;;;15.53;;
59271;SDS011;45043;51.068;7.026;2023-02-02T19:41:38;22.23;;;16.70;;
59271;SDS011;45043;51.068;7.026;2023-02-02T19:44:41;23.57;;;16.63;;
59271;SDS011;45043;51.068;7.026;2023-02-02T19:47:41;20.80;;;16.23;;
59271;SDS011;45043;51.068;7.026;2023-02-02T19:50:43;19.93;;;16.17;;
59271;SDS011;45043;51.068;7.026;2023-02-02T19:53:45;20.63;;;15.97;;
59271;SDS011;45043;51.068;7.026;2023-02-02T19:56:45;23.57;;;17.13;;
59271;SDS011;45043;51.068;7.026;2023-02-02T19:59:46;21.43;;;16.80;;
59271;SDS011;45043;51.068;7.026;2023-02-02T20:03:04;23.97;;;15.87;;
59271;SDS011;45043;51.068;7.026;2023-02-02T20:06:26;16.87;;;14.17;;
59271;SDS011;45043;51.068;7.026;2023-02-02T20:09:31;19.70;;;14.40;;
59271;SDS011;45043;51.068;7.026;2023-02-02T20:12:33;16.73;;;13.43;;
59271;SDS011;45043;51.068;7.026;2023-02-02T20:15:34;17.97;;;13.97;;
59271;SDS011;45043;51.068;7.026;2023-02-02T20:18:39;16.63;;;12.23;;
59271;SDS011;45043;51.068;7.026;2023-02-02T20:21:45;19.80;;;13.13;;
59271;SDS011;45043;51.068;7.026;2023-02-02T20:24:47;22.17;;;12.13;;
59271;SDS011;45043;51.068;7.026;2023-02-02T20:27:49;16.47;;;12.03;;
59271;SDS011;45043;51.068;7.026;2023-02-02T20:30:49;13.57;;;11.67;;
59271;SDS011;45043;51.068;7.026;2023-02-02T20:33:51;15.73;;;11.37;;
59271;SDS011;45043;51.068;7.026;2023-02-02T20:36:58;14.13;;;11.00;;
59271;SDS011;45043;51.068;7.026;2023-02-02T20:40:06;15.10;;;11.97;;